createdAt,value
2023-07-24T05:39:32.930Z,18.19
2023-07-24T06:03:50.755Z,21.37
2023-07-24T06:06:53.323Z,21.74
2023-07-24T06:09:55.883Z,22.26
2023-07-24T06:12:58.424Z,22.18
2023-07-24T06:16:01.433Z,22.07
2023-07-24T06:19:05.280Z,22.08
2023-07-24T06:22:07.922Z,22.37
2023-07-24T06:25:10.627Z,22.28
2023-07-24T06:28:13.143Z,21.93
2023-07-24T06:31:15.740Z,21.53
2023-07-24T06:34:19.674Z,21.59
2023-07-24T06:37:23.366Z,22.32
2023-07-24T06:40:26.122Z,23.04
2023-07-24T06:43:29.302Z,23.63
2023-07-24T06:46:32.137Z,23.56
2023-07-24T06:49:36.190Z,24.12
2023-07-24T06:52:38.780Z,24.40
2023-07-24T06:55:41.297Z,24.45
2023-07-24T06:58:43.818Z,24.69
2023-07-24T07:01:46.354Z,25.02
2023-07-24T07:04:50.305Z,25.47
2023-07-24T07:07:52.827Z,25.64
2023-07-24T07:10:57.480Z,25.83
2023-07-24T07:14:00.004Z,25.77
2023-07-24T07:17:02.517Z,26.21
2023-07-24T07:20:08.189Z,26.56
2023-07-24T07:23:10.734Z,26.44
2023-07-24T07:26:13.244Z,26.53
2023-07-24T07:29:15.773Z,26.80
2023-07-24T07:32:18.469Z,27.00
2023-07-24T07:35:22.335Z,26.82
2023-07-24T07:38:25.484Z,26.84
2023-07-24T07:41:28.246Z,26.10
2023-07-24T07:44:30.789Z,25.91
2023-07-24T07:47:33.351Z,24.98
2023-07-24T07:50:37.207Z,24.47
2023-07-24T07:53:40.081Z,25.42
2023-07-24T07:56:42.826Z,26.34
2023-07-24T07:59:45.382Z,27.19
2023-07-24T08:02:47.946Z,27.84
2023-07-24T08:05:51.932Z,27.66
2023-07-24T08:08:54.454Z,27.01
2023-07-24T08:11:57.324Z,25.59
2023-07-24T08:14:59.881Z,25.10
2023-07-24T08:18:02.419Z,25.33
2023-07-24T08:21:06.717Z,26.06
2023-07-24T08:24:09.623Z,25.73
2023-07-24T08:27:12.224Z,25.88
2023-07-24T08:30:14.755Z,26.40
2023-07-24T08:33:17.259Z,26.86
2023-07-24T08:36:21.129Z,26.82
2023-07-24T08:39:23.806Z,27.51
2023-07-24T08:42:27.231Z,28.15
2023-07-24T08:45:32.700Z,28.06
2023-07-24T08:48:37.728Z,28.70
2023-07-24T08:51:42.168Z,28.87
2023-07-24T08:54:46.722Z,28.39
2023-07-24T08:57:49.327Z,27.39
2023-07-24T09:00:52.530Z,26.88
2023-07-24T09:03:55.376Z,26.56
2023-07-24T09:07:00.292Z,26.50
2023-07-24T09:10:02.835Z,26.76
2023-07-24T09:13:05.760Z,26.95
2023-07-24T09:16:08.319Z,27.53
2023-07-24T09:19:26.659Z,27.69
2023-07-24T09:22:30.913Z,28.32
2023-07-24T09:25:34.773Z,28.25
2023-07-24T09:28:37.871Z,27.98
2023-07-24T09:31:40.620Z,27.77
2023-07-24T09:34:44.379Z,27.23
2023-07-24T09:37:48.845Z,27.07
2023-07-24T09:40:54.195Z,27.02
2023-07-24T09:44:00.233Z,27.16
2023-07-24T09:47:28.243Z,27.47
2023-07-24T09:50:26.710Z,28.31
2023-07-24T09:53:35.833Z,28.66
2023-07-24T09:56:49.149Z,28.43
2023-07-24T09:59:58.424Z,29.77
2023-07-24T10:03:01.725Z,30.29
2023-07-24T10:06:05.200Z,29.19
2023-07-24T10:09:10.106Z,28.63
2023-07-24T10:12:12.625Z,27.95
2023-07-24T10:15:16.088Z,28.43
2023-07-24T10:18:19.913Z,28.52
2023-07-24T10:21:28.947Z,28.24
2023-07-24T10:24:41.789Z,28.63
2023-07-24T10:27:47.457Z,28.55
2023-07-24T10:30:57.782Z,29.10
2023-07-24T10:34:06.194Z,29.12
2023-07-24T10:37:10.859Z,29.11
2023-07-24T10:40:22.805Z,28.17
2023-07-24T10:43:25.742Z,27.96
2023-07-24T10:46:38.288Z,29.55
2023-07-24T10:49:44.840Z,29.86
2023-07-24T10:52:49.423Z,30.15
2023-07-24T10:55:53.871Z,29.53
2023-07-24T10:58:56.428Z,29.53
2023-07-24T11:02:01.049Z,29.11
2023-07-24T11:05:03.685Z,29.91
2023-07-24T11:08:15.026Z,30.25
2023-07-24T11:11:18.959Z,31.08
2023-07-24T11:14:22.118Z,31.23
2023-07-24T11:17:34.961Z,31.03
2023-07-24T11:20:40.231Z,31.79
2023-07-24T11:23:47.376Z,30.31
2023-07-24T11:26:54.277Z,29.97
2023-07-24T11:29:56.817Z,29.93
2023-07-24T11:33:02.082Z,30.61
2023-07-24T11:36:05.048Z,29.33
2023-07-24T11:39:07.580Z,28.28
2023-07-24T11:42:11.635Z,27.54
2023-07-24T11:45:14.366Z,27.12
2023-07-24T11:48:17.053Z,27.13
2023-07-24T11:51:19.565Z,26.82
2023-07-24T11:54:22.082Z,26.37
2023-07-24T11:57:25.925Z,25.38
2023-07-24T12:00:29.139Z,24.74
2023-07-24T12:03:32.348Z,24.65
2023-07-24T12:06:35.097Z,24.72
2023-07-24T12:09:38.644Z,25.03
2023-07-24T12:12:47.367Z,25.66
2023-07-24T12:15:50.406Z,25.86
2023-07-24T12:18:53.006Z,25.77
2023-07-24T12:21:55.660Z,25.54
2023-07-24T12:24:58.262Z,24.92
2023-07-24T12:28:02.143Z,21.95
2023-07-24T12:31:05.461Z,20.42
2023-07-24T12:34:08.291Z,20.09
2023-07-24T12:37:10.809Z,19.95
2023-07-24T12:40:13.744Z,20.20
2023-07-24T12:43:18.052Z,20.73
2023-07-24T12:46:20.585Z,20.93
2023-07-24T12:49:23.538Z,21.17
2023-07-24T12:52:26.283Z,21.46
2023-07-24T12:55:30.697Z,21.84
2023-07-24T12:58:34.511Z,22.18
2023-07-24T13:01:37.014Z,22.17
2023-07-24T13:04:39.691Z,22.22
2023-07-24T13:07:42.341Z,22.50
2023-07-24T13:10:44.963Z,23.87
2023-07-24T13:13:48.790Z,24.35
2023-07-24T13:16:51.766Z,24.91
2023-07-24T13:19:54.385Z,25.27
2023-07-24T13:22:56.891Z,25.38
2023-07-24T13:25:59.388Z,25.29
2023-07-24T13:29:03.264Z,25.33
2023-07-24T13:32:06.570Z,25.64
2023-07-24T13:35:09.834Z,25.94
2023-07-24T13:38:13.240Z,25.95
2023-07-24T13:41:15.897Z,25.58
2023-07-24T13:44:19.713Z,25.54
2023-07-24T13:47:22.613Z,25.80
2023-07-24T13:50:25.285Z,25.90
2023-07-24T13:53:27.814Z,26.26
2023-07-24T13:56:32.372Z,26.36
2023-07-24T13:59:36.386Z,26.71
2023-07-24T14:02:38.930Z,26.73
2023-07-24T14:05:41.827Z,26.79
2023-07-24T14:08:44.324Z,26.45
2023-07-24T14:11:46.820Z,26.79
2023-07-24T14:14:50.634Z,27.19
2023-07-24T14:17:53.163Z,27.15
2023-07-24T14:20:57.577Z,26.95
2023-07-24T14:24:00.134Z,27.00
2023-07-24T14:27:02.664Z,26.96
2023-07-24T14:30:08.198Z,27.14
2023-07-24T14:33:10.880Z,27.00
2023-07-24T14:36:13.430Z,27.43
2023-07-24T14:39:15.958Z,27.83
2023-07-24T14:42:18.443Z,27.54
2023-07-24T14:45:22.432Z,28.04
2023-07-24T14:48:25.054Z,27.64
2023-07-24T14:51:27.952Z,27.17
2023-07-24T14:54:30.533Z,26.36
2023-07-24T14:57:33.624Z,26.02
2023-07-24T15:00:37.459Z,26.08
2023-07-24T15:03:40.055Z,25.98
2023-07-24T15:06:42.630Z,25.69
2023-07-24T15:09:45.308Z,25.59
2023-07-24T15:12:47.781Z,25.41
2023-07-24T15:15:51.729Z,25.27
2023-07-24T15:18:54.271Z,25.14
2023-07-24T15:21:56.759Z,24.91
2023-07-24T15:24:59.551Z,24.71
2023-07-24T15:28:02.157Z,24.42
2023-07-24T15:31:06.025Z,24.34
2023-07-24T15:34:08.791Z,24.39
2023-07-24T15:37:11.547Z,24.40
2023-07-24T15:40:14.308Z,24.35
2023-07-24T15:43:17.015Z,24.30
2023-07-24T15:46:21.292Z,24.11
2023-07-24T15:49:23.874Z,23.80
2023-07-24T15:52:26.486Z,23.54
2023-07-24T15:55:29.099Z,23.30
2023-07-24T15:58:31.603Z,23.13
2023-07-24T16:01:35.642Z,22.77
2023-07-24T16:04:38.523Z,22.64
2023-07-24T16:07:41.144Z,22.48
2023-07-24T16:10:43.718Z,22.33
2023-07-24T16:13:46.365Z,21.98
2023-07-24T16:16:50.307Z,21.75
2023-07-24T16:19:52.884Z,21.62
2023-07-24T16:22:55.509Z,21.79
2023-07-24T16:25:58.182Z,21.93
2023-07-24T16:29:00.749Z,21.85
2023-07-24T16:32:04.994Z,21.61
2023-07-24T16:35:08.180Z,21.49
2023-07-24T16:38:15.165Z,21.32
2023-07-24T16:41:19.480Z,21.13
2023-07-24T16:44:33.340Z,20.86
2023-07-24T16:47:40.781Z,20.50
2023-07-24T16:50:43.415Z,20.26
2023-07-24T16:53:46.010Z,20.04
2023-07-24T16:56:48.621Z,19.85
2023-07-24T16:59:51.370Z,19.86
2023-07-24T17:02:55.282Z,19.81
2023-07-24T17:05:57.826Z,19.79
2023-07-24T17:09:00.339Z,19.80
2023-07-24T17:12:04.880Z,19.80
2023-07-24T17:15:08.608Z,19.71
